createdAt,value
2018-07-27T00:01:10.556Z,4.53
2018-07-27T00:03:44.814Z,5.13
2018-07-27T00:06:13.210Z,5.17
2018-07-27T00:08:54.267Z,5.37
2018-07-27T00:11:22.726Z,4.70
2018-07-27T00:13:50.860Z,4.87
2018-07-27T00:16:19.482Z,5.03
2018-07-27T00:18:51.346Z,4.97
2018-07-27T00:21:19.560Z,5.27
2018-07-27T00:23:53.243Z,4.90
2018-07-27T00:26:21.414Z,4.90
2018-07-27T00:28:49.555Z,5.20
2018-07-27T00:31:17.966Z,5.20
2018-07-27T00:33:46.184Z,5.27
2018-07-27T00:36:14.327Z,5.40
2018-07-27T00:38:42.755Z,5.10
2018-07-27T00:41:11.311Z,5.10
2018-07-27T00:43:40.154Z,5.27
2018-07-27T00:46:08.624Z,5.30
2018-07-27T00:48:36.959Z,5.93
2018-07-27T00:51:09.922Z,5.47
2018-07-27T00:53:38.542Z,5.47
2018-07-27T00:56:11.854Z,4.83
2018-07-27T00:58:39.998Z,5.17
2018-07-27T01:01:12.910Z,6.13
2018-07-27T01:03:41.263Z,5.37
2018-07-27T01:06:10.890Z,5.43
2018-07-27T01:08:39.347Z,5.33
2018-07-27T01:11:07.866Z,5.10
2018-07-27T01:13:36.163Z,5.60
2018-07-27T01:16:04.601Z,4.73
2018-07-27T01:18:32.755Z,5.90
2018-07-27T01:21:00.951Z,5.53
2018-07-27T01:23:29.371Z,5.70
2018-07-27T01:25:57.507Z,5.63
2018-07-27T01:28:27.195Z,5.80
2018-07-27T01:30:55.596Z,5.17
2018-07-27T01:33:29.006Z,5.63
2018-07-27T01:42:35.002Z,5.27
2018-07-27T01:45:03.117Z,5.70
2018-07-27T01:47:37.149Z,5.83
2018-07-27T01:50:05.272Z,5.60
2018-07-27T01:52:38.112Z,5.50
2018-07-27T01:55:08.557Z,4.87
2018-07-27T01:57:49.593Z,5.63
2018-07-27T02:00:18.198Z,5.60
2018-07-27T02:02:46.317Z,5.67
2018-07-27T02:05:15.105Z,5.83
2018-07-27T02:07:46.231Z,5.13
2018-07-27T02:10:14.836Z,5.03
2018-07-27T02:12:47.522Z,4.70
2018-07-27T02:15:16.189Z,5.10
2018-07-27T02:17:44.650Z,5.20
2018-07-27T02:20:13.085Z,4.50
2018-07-27T02:22:41.580Z,4.80
2018-07-27T02:25:09.685Z,4.80
2018-07-27T02:27:37.804Z,4.47
2018-07-27T02:30:06.453Z,4.40
2018-07-27T02:32:34.581Z,4.40
2018-07-27T02:35:02.706Z,4.40
2018-07-27T02:37:31.073Z,4.40
2018-07-27T02:40:03.437Z,4.47
2018-07-27T02:42:31.507Z,4.60
2018-07-27T02:44:59.638Z,4.53
2018-07-27T02:47:28.146Z,4.67
2018-07-27T02:49:56.501Z,4.63
2018-07-27T02:52:24.613Z,4.80
2018-07-27T02:54:52.823Z,4.90
2018-07-27T02:57:20.911Z,4.90
2018-07-27T02:59:49.021Z,4.57
2018-07-27T03:02:17.466Z,4.40
2018-07-27T03:04:45.565Z,4.13
2018-07-27T03:07:18.329Z,4.00
2018-07-27T03:09:46.859Z,4.33
2018-07-27T03:12:20.373Z,5.00
2018-07-27T03:14:48.481Z,4.40
2018-07-27T03:17:22.849Z,4.47
2018-07-27T03:19:51.081Z,4.30
2018-07-27T03:25:01.117Z,4.77
2018-07-27T03:27:29.307Z,4.40
2018-07-27T03:29:57.416Z,4.17
2018-07-27T03:32:37.922Z,5.10
2018-07-27T03:35:06.080Z,4.20
2018-07-27T03:37:34.437Z,4.30
2018-07-27T03:40:02.679Z,4.57
2018-07-27T03:42:43.872Z,4.80
2018-07-27T03:45:12.529Z,4.43
2018-07-27T03:47:40.918Z,4.87
2018-07-27T03:50:09.641Z,4.70
2018-07-27T03:52:40.989Z,3.90
2018-07-27T03:55:09.104Z,4.27
2018-07-27T03:57:42.166Z,4.43
2018-07-27T04:00:12.166Z,4.13
2018-07-27T04:02:44.414Z,3.67
2018-07-27T04:05:12.505Z,4.07
2018-07-27T04:07:40.966Z,4.57
2018-07-27T04:10:09.090Z,4.30
2018-07-27T04:12:37.192Z,3.80
2018-07-27T04:15:05.938Z,4.50
2018-07-27T04:17:34.279Z,4.60
2018-07-27T04:20:02.429Z,5.30
2018-07-27T04:22:31.664Z,4.53
2018-07-27T04:24:59.784Z,3.70
2018-07-27T04:27:27.876Z,4.53
2018-07-27T04:30:00.458Z,4.30
2018-07-27T04:32:28.582Z,4.93
2018-07-27T04:34:56.711Z,4.63
2018-07-27T04:37:25.521Z,4.77
2018-07-27T04:39:53.648Z,4.53
2018-07-27T04:42:22.217Z,4.03
2018-07-27T04:44:50.625Z,4.40
2018-07-27T04:47:18.787Z,4.37
2018-07-27T04:49:46.962Z,4.27
2018-07-27T04:52:15.393Z,5.10
2018-07-27T04:54:43.533Z,5.90
2018-07-27T04:57:24.430Z,4.83
2018-07-27T04:59:52.984Z,4.57
2018-07-27T05:02:21.103Z,4.50
2018-07-27T05:04:49.539Z,5.03
2018-07-27T05:07:22.273Z,4.30
2018-07-27T05:09:50.572Z,4.40
2018-07-27T05:12:22.736Z,4.27
2018-07-27T05:14:51.115Z,4.67
2018-07-27T05:17:23.464Z,4.73
2018-07-27T05:19:52.514Z,4.57
2018-07-27T05:22:20.706Z,5.50
2018-07-27T05:24:48.825Z,4.60
2018-07-27T05:27:17.144Z,4.20
2018-07-27T05:29:45.309Z,5.07
2018-07-27T05:32:13.599Z,5.00
2018-07-27T05:34:41.978Z,5.13
2018-07-27T05:37:10.199Z,4.70
2018-07-27T05:39:38.300Z,4.77
2018-07-27T05:42:06.762Z,4.93
2018-07-27T05:44:38.698Z,4.70
2018-07-27T05:47:07.048Z,5.33
2018-07-27T05:49:40.489Z,5.53
2018-07-27T05:52:08.609Z,5.07
2018-07-27T05:54:36.701Z,5.50
2018-07-27T05:57:05.414Z,4.80
2018-07-27T05:59:33.809Z,4.67
2018-07-27T06:02:01.948Z,4.73
2018-07-27T06:04:30.482Z,5.00
2018-07-27T06:06:59.616Z,4.90
2018-07-27T06:09:27.712Z,4.73
2018-07-27T06:11:56.169Z,5.30
2018-07-27T06:14:24.404Z,5.07
2018-07-27T06:16:55.908Z,5.60
2018-07-27T06:19:24.280Z,5.12
2018-07-27T06:24:29.421Z,4.97
2018-07-27T06:27:10.438Z,5.40
2018-07-27T06:29:39.058Z,5.45
2018-07-27T06:32:07.311Z,5.00
2018-07-27T06:36:56.488Z,5.00
2018-07-27T06:39:25.146Z,5.17
2018-07-27T06:41:53.309Z,5.40
2018-07-27T06:46:45.236Z,5.00
2018-07-27T06:49:14.292Z,5.03
2018-07-27T06:51:43.094Z,5.12
2018-07-27T06:54:18.457Z,5.85
2018-07-27T06:56:47.042Z,5.15
2018-07-27T06:59:19.113Z,5.20
2018-07-27T07:01:47.542Z,4.87
2018-07-27T07:04:22.615Z,4.40
2018-07-27T07:06:50.999Z,5.15
2018-07-27T07:09:32.490Z,4.78
2018-07-27T07:12:00.865Z,4.47
2018-07-27T07:14:29.011Z,4.97
2018-07-27T07:16:57.348Z,4.42
2018-07-27T07:19:28.901Z,4.60
2018-07-27T07:21:57.813Z,4.33
2018-07-27T07:24:30.102Z,4.87
2018-07-27T07:26:58.564Z,5.22
2018-07-27T07:29:32.512Z,4.58
2018-07-27T07:32:00.626Z,4.85
2018-07-27T07:34:31.760Z,5.05
2018-07-27T07:37:03.877Z,5.05
2018-07-27T07:39:37.409Z,5.53
2018-07-27T07:42:06.565Z,4.70
2018-07-27T07:44:44.121Z,5.08
2018-07-27T07:47:12.261Z,5.15
2018-07-27T07:49:44.242Z,5.20
2018-07-27T07:52:12.345Z,4.67
2018-07-27T07:54:46.335Z,5.33
2018-07-27T07:57:19.002Z,4.60
2018-07-27T07:59:51.160Z,5.12
2018-07-27T08:02:19.301Z,5.20
2018-07-27T08:04:59.742Z,4.85
2018-07-27T08:07:28.325Z,5.37
2018-07-27T08:09:57.613Z,5.17
2018-07-27T08:12:25.746Z,5.25
2018-07-27T08:14:58.165Z,5.70
2018-07-27T08:17:27.829Z,4.97
2018-07-27T08:20:09.621Z,5.33
2018-07-27T08:22:37.817Z,5.53
2018-07-27T08:25:06.239Z,5.00
2018-07-27T08:27:34.930Z,5.22
2018-07-27T08:30:06.215Z,4.87
2018-07-27T08:32:34.576Z,5.40
2018-07-27T08:35:02.674Z,4.95
2018-07-27T08:37:31.117Z,5.37
2018-07-27T08:40:00.713Z,5.70
2018-07-27T08:42:29.133Z,5.22
2018-07-27T08:44:57.256Z,4.85
2018-07-27T08:47:25.391Z,5.03
2018-07-27T08:49:54.542Z,5.30
2018-07-27T08:52:24.232Z,5.00
2018-07-27T08:54:52.369Z,5.10
2018-07-27T08:57:21.114Z,5.62
2018-07-27T08:59:49.276Z,4.80
2018-07-27T09:02:22.476Z,5.25
2018-07-27T09:04:51.308Z,4.80
2018-07-27T09:07:24.148Z,5.20
2018-07-27T09:09:53.136Z,4.92
2018-07-27T09:12:26.829Z,5.50
2018-07-27T09:14:55.587Z,4.70
2018-07-27T09:17:28.322Z,5.15
2018-07-27T09:19:57.640Z,4.40
2018-07-27T09:22:30.751Z,5.30
2018-07-27T09:25:00.332Z,5.45
2018-07-27T09:27:33.299Z,4.80
2018-07-27T09:30:01.447Z,5.25
2018-07-27T09:35:43.567Z,4.75
2018-07-27T09:38:14.743Z,5.33
2018-07-27T09:40:43.552Z,5.10
2018-07-27T09:43:12.152Z,4.83
2018-07-27T09:45:43.768Z,4.42
2018-07-27T09:48:11.889Z,5.10
2018-07-27T09:50:45.359Z,5.28
2018-07-27T09:53:16.683Z,5.20
2018-07-27T09:55:49.705Z,5.28
2018-07-27T09:58:17.849Z,4.85
2018-07-27T10:00:51.461Z,4.70
2018-07-27T10:03:19.593Z,4.28
2018-07-27T10:05:48.275Z,5.17
2018-07-27T10:08:16.529Z,4.50
2018-07-27T10:10:44.946Z,4.47
2018-07-27T10:13:13.523Z,5.80
2018-07-27T10:15:42.989Z,4.60
2018-07-27T10:18:13.308Z,4.87
2018-07-27T10:20:41.940Z,5.03
2018-07-27T10:23:10.105Z,4.85
2018-07-27T10:25:38.475Z,4.37
2018-07-27T10:28:12.412Z,4.53
2018-07-27T10:30:41.485Z,4.65
2018-07-27T10:33:12.287Z,4.80
2018-07-27T10:35:41.950Z,4.33
2018-07-27T10:38:14.663Z,4.60
2018-07-27T10:40:42.922Z,5.08
2018-07-27T10:43:16.190Z,5.35
2018-07-27T10:45:45.141Z,5.08
2018-07-27T10:48:25.720Z,5.65
2018-07-27T10:50:55.968Z,4.83
2018-07-27T10:53:25.187Z,5.95
2018-07-27T10:55:54.369Z,5.05
2018-07-27T10:58:23.162Z,5.03
2018-07-27T11:00:51.343Z,5.15
2018-07-27T11:03:26.387Z,5.15
2018-07-27T11:05:54.821Z,4.85
2018-07-27T11:08:28.665Z,5.17
2018-07-27T11:10:57.143Z,5.08
2018-07-27T11:13:33.148Z,5.40
2018-07-27T11:16:01.936Z,5.15
2018-07-27T11:18:42.643Z,5.97
2018-07-27T11:21:11.157Z,5.20
2018-07-27T11:23:39.338Z,5.05
2018-07-27T11:26:09.110Z,5.37
2018-07-27T11:28:40.270Z,4.97
2018-07-27T11:31:08.633Z,4.70
2018-07-27T11:33:41.229Z,4.47
2018-07-27T11:36:10.268Z,4.67
2018-07-27T11:38:44.925Z,4.70
2018-07-27T11:41:14.319Z,4.85
2018-07-27T11:43:49.150Z,4.70
2018-07-27T11:46:17.297Z,5.50
2018-07-27T11:48:59.314Z,4.83
2018-07-27T11:51:29.089Z,4.95
2018-07-27T11:53:58.001Z,4.15
2018-07-27T11:56:26.477Z,5.47
2018-07-27T11:58:57.548Z,4.62
2018-07-27T12:01:25.674Z,4.47
2018-07-27T12:04:06.397Z,4.55
2018-07-27T12:06:37.225Z,4.50
2018-07-27T12:09:07.326Z,5.05
2018-07-27T12:11:38.428Z,4.58
2018-07-27T12:14:08.189Z,4.95
2018-07-27T12:16:36.191Z,4.80
2018-07-27T12:19:07.450Z,4.78
2018-07-27T12:21:36.260Z,4.60
2018-07-27T12:24:04.820Z,5.10
2018-07-27T12:26:37.277Z,5.20
2018-07-27T12:29:06.042Z,5.25
2018-07-27T12:31:34.313Z,5.42
2018-07-27T12:34:02.473Z,5.10
2018-07-27T12:36:31.350Z,5.00
2018-07-27T12:39:01.752Z,4.65
2018-07-27T12:41:30.481Z,5.70
2018-07-27T12:43:59.165Z,5.22
2018-07-27T12:46:27.649Z,5.28
2018-07-27T12:48:55.763Z,4.80
2018-07-27T12:51:24.899Z,4.97
2018-07-27T12:53:53.175Z,5.28
2018-07-27T12:56:27.657Z,4.87
2018-07-27T12:58:56.052Z,5.05
2018-07-27T13:01:36.820Z,6.47
2018-07-27T13:04:05.535Z,5.95
2018-07-27T13:06:34.754Z,5.55
2018-07-27T13:09:04.184Z,5.15
2018-07-27T13:11:33.860Z,5.17
2018-07-27T13:14:02.006Z,5.17
2018-07-27T13:16:34.954Z,5.00
2018-07-27T13:19:03.604Z,4.85
2018-07-27T13:21:32.168Z,5.20
2018-07-27T13:24:07.325Z,5.22
2018-07-27T13:26:49.653Z,5.42
2018-07-27T13:29:18.167Z,4.97
2018-07-27T13:31:51.209Z,5.35
2018-07-27T13:37:06.547Z,5.85
2018-07-27T13:39:36.202Z,5.72
2018-07-27T13:42:06.550Z,5.65
2018-07-27T13:44:37.080Z,5.30
2018-07-27T13:47:06.438Z,5.45
2018-07-27T13:49:34.596Z,5.40
2018-07-27T13:52:03.683Z,5.20
2018-07-27T13:54:32.768Z,4.70
2018-07-27T13:57:01.077Z,5.90
2018-07-27T13:59:31.000Z,5.70
2018-07-27T14:02:04.267Z,4.83
2018-07-27T14:04:32.436Z,5.75
2018-07-27T14:07:15.562Z,5.65
2018-07-27T14:09:45.589Z,5.15
2018-07-27T14:12:13.701Z,5.33
2018-07-27T14:14:43.008Z,4.75
2018-07-27T14:17:12.560Z,4.97
2018-07-27T14:19:44.413Z,5.33
2018-07-27T14:22:15.184Z,5.00
2018-07-27T14:24:43.957Z,5.03
2018-07-27T14:27:26.556Z,5.17
2018-07-27T14:29:54.934Z,5.10
2018-07-27T14:32:25.146Z,4.58
2018-07-27T14:34:53.310Z,5.08
2018-07-27T14:37:23.210Z,5.22
2018-07-27T14:39:53.534Z,5.12
2018-07-27T14:42:24.198Z,5.22
2018-07-27T14:44:53.669Z,4.90
2018-07-27T14:47:26.535Z,4.58
2018-07-27T14:49:56.884Z,5.45
2018-07-27T14:52:29.892Z,4.42
2018-07-27T14:54:58.948Z,4.85
2018-07-27T14:57:32.372Z,4.47
2018-07-27T15:00:01.657Z,5.05
2018-07-27T15:02:33.835Z,4.60
2018-07-27T15:05:02.200Z,4.40
2018-07-27T15:07:43.856Z,3.92
2018-07-27T15:10:12.809Z,5.10
2018-07-27T15:12:41.622Z,5.08
2018-07-27T15:15:09.991Z,4.75
2018-07-27T15:17:39.699Z,4.60
2018-07-27T15:20:10.198Z,5.15
2018-07-27T15:22:41.949Z,4.40
2018-07-27T15:25:11.844Z,4.62
2018-07-27T15:27:52.740Z,5.03
2018-07-27T15:30:21.926Z,4.17
2018-07-27T15:32:56.452Z,4.08
2018-07-27T15:35:25.345Z,5.33
2018-07-27T15:37:56.410Z,4.50
2018-07-27T15:42:54.543Z,4.70
2018-07-27T15:45:24.430Z,4.83
2018-07-27T15:47:58.191Z,10.00
2018-07-27T15:50:27.673Z,13.95
2018-07-27T15:53:04.770Z,11.10
2018-07-27T15:55:38.891Z,20.65
2018-07-27T15:58:09.739Z,8.60
2018-07-27T16:00:37.925Z,15.32
2018-07-27T16:03:06.099Z,6.30
2018-07-27T16:05:35.321Z,4.10
2018-07-27T16:08:16.298Z,4.30
2018-07-27T16:10:44.537Z,3.83
2018-07-27T16:13:15.014Z,3.83
2018-07-27T16:15:44.146Z,4.30
2018-07-27T16:18:16.394Z,3.85
2018-07-27T16:20:45.610Z,4.03
2018-07-27T16:23:17.165Z,4.40
2018-07-27T16:25:46.161Z,4.12
2018-07-27T16:28:20.619Z,4.30
2018-07-27T16:30:49.049Z,3.67
2018-07-27T16:33:29.997Z,3.92
2018-07-27T16:35:58.393Z,5.92
2018-07-27T16:38:26.549Z,4.65
2018-07-27T16:40:56.403Z,4.70
2018-07-27T16:43:26.597Z,4.92
2018-07-27T16:45:54.824Z,3.75
2018-07-27T16:48:36.600Z,11.68
2018-07-27T16:51:05.571Z,5.05
2018-07-27T16:53:33.692Z,6.75
2018-07-27T16:56:01.813Z,4.20
2018-07-27T16:58:33.521Z,7.37
2018-07-27T17:01:01.640Z,4.50
2018-07-27T17:03:34.618Z,3.87
2018-07-27T17:06:03.191Z,3.85
2018-07-27T17:08:36.206Z,4.25
2018-07-27T17:11:04.348Z,3.90
2018-07-27T17:13:38.143Z,4.53
2018-07-27T17:16:06.998Z,4.12
2018-07-27T17:18:35.113Z,3.85
2018-07-27T17:21:03.598Z,3.80
2018-07-27T17:23:32.529Z,4.10
2018-07-27T17:26:00.945Z,3.98
2018-07-27T17:28:29.395Z,4.05
2018-07-27T17:30:58.549Z,4.00
2018-07-27T17:33:26.667Z,3.70
2018-07-27T17:35:55.054Z,3.72
2018-07-27T17:38:24.426Z,3.75
2018-07-27T17:40:54.372Z,4.25
2018-07-27T17:43:23.094Z,4.08
2018-07-27T17:45:55.415Z,4.70
2018-07-27T17:48:24.218Z,3.65
2018-07-27T17:50:52.652Z,4.37
2018-07-27T17:53:20.789Z,3.92
2018-07-27T17:55:49.831Z,3.85
2018-07-27T17:58:19.440Z,3.65
2018-07-27T18:00:48.473Z,4.00
2018-07-27T18:03:17.053Z,4.17
2018-07-27T18:05:46.100Z,4.33
2018-07-27T18:08:15.960Z,4.03
2018-07-27T18:10:45.363Z,3.83
2018-07-27T18:13:13.632Z,4.30
2018-07-27T18:15:41.725Z,4.15
2018-07-27T18:18:16.032Z,4.40
2018-07-27T18:20:44.419Z,4.15
2018-07-27T18:23:24.993Z,4.15
2018-07-27T18:25:53.416Z,4.65
2018-07-27T18:28:22.527Z,3.60
2018-07-27T18:30:52.772Z,4.30
2018-07-27T18:33:24.413Z,4.10
2018-07-27T18:35:54.524Z,3.77
2018-07-27T18:38:35.727Z,4.40
2018-07-27T18:41:05.306Z,4.10
2018-07-27T18:43:34.500Z,4.03
2018-07-27T18:46:03.611Z,3.80
2018-07-27T18:48:32.397Z,4.00
2018-07-27T18:51:01.830Z,4.17
2018-07-27T18:53:34.099Z,3.80
2018-07-27T18:56:02.529Z,4.22
2018-07-27T18:58:43.681Z,4.10
2018-07-27T19:01:12.877Z,3.80
2018-07-27T19:03:41.757Z,4.00
2018-07-27T19:06:09.909Z,3.90
2018-07-27T19:08:41.834Z,3.77
2018-07-27T19:11:11.155Z,3.55
2018-07-27T19:13:43.035Z,3.87
2018-07-27T19:16:11.577Z,3.45
2018-07-27T19:18:45.516Z,3.40
2018-07-27T19:21:13.694Z,4.05
2018-07-27T19:23:46.455Z,4.55
2018-07-27T19:26:14.937Z,4.12
2018-07-27T19:28:49.350Z,4.35
2018-07-27T19:31:20.745Z,4.17
2018-07-27T19:34:01.430Z,4.70
2018-07-27T19:36:29.654Z,4.33
2018-07-27T19:38:58.915Z,3.55
2018-07-27T19:41:31.175Z,3.65
2018-07-27T19:44:00.611Z,3.85
2018-07-27T19:46:32.932Z,3.87
2018-07-27T19:49:04.626Z,3.65
2018-07-27T19:51:33.425Z,4.40
2018-07-27T19:54:14.416Z,4.28
2018-07-27T19:56:42.591Z,4.20
2018-07-27T19:59:12.030Z,4.25
2018-07-27T20:01:41.141Z,4.10
2018-07-27T20:04:14.515Z,3.95
2018-07-27T20:06:42.674Z,4.03
2018-07-27T20:09:14.561Z,4.22
2018-07-27T20:11:43.625Z,5.37
2018-07-27T20:14:18.164Z,4.47
2018-07-27T20:16:47.671Z,14.03
2018-07-27T20:19:19.414Z,14.60
2018-07-27T20:21:48.913Z,10.65
2018-07-27T20:24:23.552Z,10.28
2018-07-27T20:26:59.092Z,7.03
2018-07-27T20:29:32.209Z,5.95
2018-07-27T20:32:01.257Z,4.50
2018-07-27T20:34:29.413Z,5.05
2018-07-27T20:36:58.555Z,4.67
2018-07-27T20:39:31.896Z,4.35
2018-07-27T20:42:00.455Z,5.25
2018-07-27T20:47:05.442Z,4.50
2018-07-27T20:49:34.772Z,4.70
2018-07-27T20:52:03.969Z,5.08
2018-07-27T20:54:45.849Z,4.87
2018-07-27T20:57:14.248Z,4.97
2018-07-27T20:59:42.357Z,4.83
2018-07-27T21:02:10.518Z,5.00
2018-07-27T21:04:51.279Z,5.05
2018-07-27T21:07:19.732Z,5.03
2018-07-27T21:09:48.089Z,5.08
2018-07-27T21:12:16.533Z,5.05
2018-07-27T21:14:47.837Z,5.22
2018-07-27T21:17:17.145Z,5.28
2018-07-27T21:19:58.386Z,5.12
2018-07-27T21:22:30.167Z,5.08
2018-07-27T21:24:59.097Z,5.40
2018-07-27T21:27:27.298Z,5.37
2018-07-27T21:29:57.295Z,5.25
2018-07-27T21:32:27.733Z,4.80
2018-07-27T21:35:00.851Z,5.47
2018-07-27T21:37:29.365Z,5.22
2018-07-27T21:40:10.314Z,5.35
2018-07-27T21:42:38.470Z,5.45
2018-07-27T21:45:11.233Z,5.62
2018-07-27T21:47:40.300Z,5.40
2018-07-27T21:50:09.229Z,5.90
2018-07-27T21:52:39.250Z,5.45
2018-07-27T21:55:20.467Z,5.58
2018-07-27T21:57:50.197Z,5.55
2018-07-27T22:00:20.338Z,6.12
2018-07-27T22:02:55.741Z,5.97
2018-07-27T22:05:26.363Z,5.90
2018-07-27T22:08:00.891Z,6.03
2018-07-27T22:10:29.194Z,5.83
2018-07-27T22:12:59.564Z,5.95
2018-07-27T22:15:28.279Z,6.17
2018-07-27T22:17:57.609Z,6.05
2018-07-27T22:20:27.158Z,6.27
2018-07-27T22:22:57.493Z,6.20
2018-07-27T22:25:29.662Z,5.72
2018-07-27T22:27:57.936Z,5.80
2018-07-27T22:30:34.826Z,5.75
2018-07-27T22:33:03.546Z,5.50
2018-07-27T22:35:32.830Z,6.20
2018-07-27T22:38:01.143Z,6.53
2018-07-27T22:40:36.129Z,5.78
2018-07-27T22:43:04.477Z,6.30
2018-07-27T22:45:35.097Z,6.17
2018-07-27T22:48:04.410Z,5.85
2018-07-27T22:50:45.138Z,5.95
2018-07-27T22:53:15.745Z,5.87
2018-07-27T22:55:44.605Z,5.30
2018-07-27T23:00:45.947Z,5.27
2018-07-27T23:03:15.834Z,5.70
2018-07-27T23:05:45.045Z,6.03
2018-07-27T23:08:15.738Z,5.30
2018-07-27T23:10:48.479Z,5.25
2018-07-27T23:13:18.031Z,5.67
2018-07-27T23:16:01.406Z,5.58
2018-07-27T23:18:31.157Z,5.30
2018-07-27T23:21:00.320Z,5.12
2018-07-27T23:23:29.437Z,6.60
2018-07-27T23:25:58.025Z,6.83
2018-07-27T23:28:27.348Z,6.60
2018-07-27T23:31:09.147Z,6.03
2018-07-27T23:33:38.161Z,6.90
2018-07-27T23:36:06.482Z,6.50
2018-07-27T23:38:34.609Z,6.03
2018-07-27T23:41:05.137Z,6.73
2018-07-27T23:43:33.533Z,6.20
2018-07-27T23:46:06.724Z,6.17
2018-07-27T23:48:35.541Z,5.70
2018-07-27T23:51:04.147Z,5.73
2018-07-27T23:53:32.533Z,6.30
2018-07-27T23:56:01.521Z,6.70
2018-07-27T23:58:30.546Z,5.83
